Diona, Illinois
Current Conditions -  °F | °C
As of 10:53 AM on Sunday 23 Nov 2014 (Local Time) from KMTO Reporting Station
Light Rain Light Rain  
Wind Chill: 52°   Ceiling: 1800
Heat Index: 52°   Visibility: 10mi
Dew Point: 46°   Wind: 20mph
Humidity: 80%   Direction: 160°SSE
Pressure: 29.68"   Gusts: 31mph
Location:  39.2272°N, 88.1132°W
Report Text: KMTO 231653Z AUTO 16017G27KT 10SM -RA OVC018 11/08 A2968 RMK AO2 PK WND 14027/1650 RAB37 SLP051 P0000 T01110078
Loading
Personal Weather Stations






























Interactive Weather Map New forecast layout! Learn more

10-Day Weather Forecast

Advertisements
Track Severe Weather on mobile